Aeroporto :
LOGIN :

Iscrizione | Disclaimer

   EN    FR    IT 

 










Sommario :    VFR   VFR Marginale   IFR   IFR Intensivo   IFR Molto Intensivo
Visibilità : 
Base nubi : 
>= 8 km
>= 3000ft
5 / 8 km
1000 / 3000 ft
1500m / 5 km
500 / 1000 ft
800 / 1500m
200 / 500 ft
< 800m
< 200 ft
Simboli :   Temporali  Nebbia  Neve Forte  Precipitazioni Forti  Vento > 20 kt
SIGMETs :   Varie  Temporali  Ghiacco  Turbolenza  Onda orograficha  Ceneri Vulcaniche






- Altitudine del aeroporto : 171 ft
- Codice IATA : EGC


LFBE - Bergerac

ULTIMO METAR :
  • 132000Z AUTO 10004KT CAVOK 21/14 Q1013 BECMG 16010KT

METARs OBSOLETI :
  • 131930Z AUTO 07003KT 030V140 CAVOK 21/14 Q1013 NOSIG
  • 131900Z AUTO 13007KT 080V160 CAVOK 23/15 Q1012 NOSIG
  • 131830Z AUTO 15006KT 100V190 CAVOK 23/15 Q1012 NOSIG
  • 131800Z AUTO VRB03KT CAVOK 23/14 Q1012 NOSIG
  • 131730Z AUTO 14011KT 9999 ///CB 25/15 Q1011 BECMG NSC

TAF TAF LFBE
Valido dal 13 a 12 ore il 14 a 12 ore UTC


131100Z 1312/1412 16010KT CAVOK
TEMPO 1312/1314 16015G25KT
PROB40
TEMPO 1315/1318 -SHRA BKN060TCU
PROB30
TEMPO 1315/1318 3000 -TSRA BKN040CB
BECMG 1401/1403 16015G25KT
TEMPO 1407/1412 15020G35KT



MetMap, La meteo Aeronautica in un colpo d'occhio ! - Copyright ORBIFLY Dicembre 2007 - Disclaimer

ORBIFLY MET'MAP TEAM :

Programmazione e sviluppo : Alexandra Zaïnal
Concezione e sviluppo : Baudouin d'Aumeries
Co-Programmazione e sviluppo : Marc-Olivier Méhu
Supporto tecnico e logistico : Manuel Goepfert
Aiuto per la traduzione : Arnaldo La Scala

Contatto : metmap@orbifly.com




FONTI E CREDITI :

   NOAA